Latest Weather Observations for Truscott

IDD60801

Issued at 11:31 pm CST Thursday 30 July 2015 (issued every 30 minutes, with the page automatically refreshed every 10 minutes)

About weather observations | Map of weather stations | Latest weather observations for NT | Other Formats
Station Details ID: 001020 Name: TRUSCOTT Lat: -14.09 Lon: 126.39 Height: 51.0 m
Data from the previous 72 hours. | See also: Recent months at Truscott
Date/Time
CST
Temp
°C
App
Temp
°C
Dew
Point
Rel
Hum
%
Delta-T
°C
Wind Press
QNH
hPa
Press
MSL
hPa
Rain
since 9 am
mm
Dir
 
Spd
km/h
Gust
km/h
Spd
kts
Gust
kts
30/11:30pm 23.2 22.7 12.5 51 6.1 ESE 7 9 4 5 1016.4 - 0.0
30/11:00pm 23.5 23.0 13.9 55 5.6 E 9 13 5 7 1016.5 - 0.0
30/10:30pm 24.1 24.1 15.1 57 5.4 E 9 11 5 6 1016.4 1016.1 0.0
30/10:00pm 24.7 24.4 14.5 53 6.1 E 9 13 5 7 1016.2 - 0.0
30/09:30pm 25.3 24.4 12.5 45 7.4 ENE 9 15 5 8 1016.0 - 0.0
30/09:00pm 25.9 25.0 12.7 44 7.7 ENE 9 13 5 7 1015.6 - 0.0
30/08:30pm 26.2 24.8 13.3 45 7.6 ENE 13 19 7 10 1015.2 - 0.0
30/08:00pm 26.4 25.7 13.2 44 7.7 NE 9 19 5 10 1014.7 - 0.0
30/07:30pm 26.3 26.7 15.4 51 6.6 NNE 7 11 4 6 1014.4 1014.0 0.0
30/07:00pm 28.1 26.1 11.6 36 9.5 NE 13 20 7 11 1014.2 - 0.0
30/06:30pm 29.1 26.6 11.2 33 10.3 NE 15 24 8 13 1013.9 - 0.0
30/06:00pm 29.9 27.1 11.4 32 10.7 NE 17 22 9 12 1013.7 - 0.0
30/05:30pm 30.7 27.8 11.1 30 11.3 ENE 17 28 9 15 1013.6 - 0.0
30/05:00pm 30.9 27.6 10.8 29 11.6 NE 19 32 10 17 1013.5 - 0.0
30/04:30pm 31.1 27.7 10.4 28 11.9 NE 19 28 10 15 1013.5 1013.1 0.0
30/04:00pm 31.8 28.4 10.5 27 12.3 ENE 19 26 10 14 1013.8 - 0.0
30/03:30pm 31.3 27.2 10.1 27 12.1 NE 22 32 12 17 1014.1 - 0.0
30/03:00pm 32.0 29.0 10.7 27 12.3 NE 17 28 9 15 1014.6 - 0.0
30/02:30pm 31.6 28.9 10.3 27 12.2 ENE 15 28 8 15 1015.1 - 0.0
30/02:00pm 31.2 27.1 8.8 25 12.5 E 20 32 11 17 1015.6 - 0.0
30/01:30pm 31.2 27.3 8.8 25 12.5 E 19 32 10 17 1016.0 1015.7 0.0
30/01:00pm 31.3 27.1 8.3 24 12.8 E 20 30 11 16 1016.6 - 0.0
30/12:30pm 30.4 25.4 8.2 25 12.2 E 24 35 13 19 1017.1 - 0.0
30/12:00pm 30.1 25.2 8.5 26 11.9 E 24 37 13 20 1017.5 - 0.0
30/11:30am 29.9 25.2 7.7 25 12.1 E 22 39 12 21 1017.7 - 0.0
30/11:00am 28.9 24.4 6.9 25 11.8 ESE 20 39 11 21 1017.9 - 0.0
30/10:30am 28.5 24.1 6.6 25 11.6 ESE 19 33 10 18 1018.0 1017.7 0.0
30/10:00am 27.6 23.8 5.8 25 11.4 ESE 15 28 8 15 1018.1 - 0.0
30/09:30am 26.9 23.0 5.2 25 11.1 SE 15 22 8 12 1018.0 - 0.0
30/09:00am 25.6 22.4 5.2 27 10.4 SE 11 20 6 11 1017.5 - 0.0
30/08:30am 24.3 21.1 5.1 29 9.7 SE 11 17 6 9 1017.1 - 0.0
30/08:00am 23.3 20.0 4.8 30 9.2 SE 11 15 6 8 1016.9 - 0.0
30/07:30am 22.3 19.4 4.8 32 8.6 SE 9 15 5 8 1016.5 1016.2 0.0
30/07:00am 21.9 19.0 4.9 33 8.4 SE 9 11 5 6 1016.3 - 0.0
30/06:40am 21.7 19.2 4.7 33 8.4 SE 7 11 4 6 1016.2 - 0.0
30/06:30am 21.9 19.0 4.9 33 8.4 SE 9 11 5 6 1016.2 - 0.0
30/06:22am 21.6 18.8 5.1 34 8.2 SE 9 11 5 6 1016.1 - 0.0
30/06:00am 21.5 19.1 5.4 35 8.0 SE 7 11 4 6 1016.0 - 0.0
30/05:30am 19.7 17.3 5.4 39 7.0 SSE 7 9 4 5 1015.9 - 0.0
30/05:00am 21.2 18.9 5.5 36 7.8 SE 7 11 4 6 1015.9 - 0.0
30/04:30am 21.2 18.9 5.9 37 7.7 SE 7 11 4 6 1015.9 1015.6 0.0
30/04:00am 22.0 19.3 5.8 35 8.2 SSE 9 11 5 6 1016.1 - 0.0
30/03:30am 22.0 19.7 5.8 35 8.2 SSE 7 11 4 6 1016.2 - 0.0
30/03:00am 22.4 19.8 6.2 35 8.2 SSE 9 11 5 6 1016.4 - 0.0
30/02:30am 22.6 20.2 6.8 36 8.1 SSE 9 13 5 7 1016.6 - 0.0
30/02:21am 22.8 20.5 7.4 37 8.0 SSE 9 13 5 7 1016.7 - 0.0
30/02:07am 22.6 20.4 8.0 39 7.7 SSE 9 13 5 7 1016.7 - 0.0
30/02:00am 22.1 20.2 8.9 43 7.0 SSE 9 11 5 6 1016.7 - 0.0
30/01:52am 22.1 20.3 9.3 44 6.9 SSE 9 11 5 6 1016.7 - 0.0
30/01:34am 20.4 20.0 12.9 62 4.3 SSE 7 11 4 6 1016.9 - 0.0
30/01:30am 20.3 19.9 13.0 63 4.1 SSE 7 9 4 5 1017.0 1016.7 0.0
30/01:00am 20.6 20.3 13.3 63 4.2 ESE 7 9 4 5 1017.2 - 0.0
30/12:30am 21.0 20.8 13.7 63 4.2 E 7 7 4 4 1017.3 - 0.0
30/12:00am 21.5 21.4 13.9 62 4.4 ESE 7 9 4 5 1017.3 - 0.0
 
Date/Time
CST
Temp
°C
App
Temp
°C
Dew
Point
Rel
Hum
%
Delta-T
°C
Wind Press
QNH
hPa
Press
MSL
hPa
Rain
since 9 am
mm
Dir
 
Spd
km/h
Gust
km/h
Spd
kts
Gust
kts
29/11:30pm 22.7 23.0 15.0 61 4.6 ESE 7 11 4 6 1017.3 - 0.0
29/11:00pm 22.8 23.1 14.6 60 4.9 E 6 7 3 4 1017.3 - 0.0
29/10:30pm 23.9 24.1 14.6 56 5.5 E 7 11 4 6 1017.1 1016.8 0.0
29/10:00pm 24.1 23.8 13.3 51 6.3 E 7 11 4 6 1016.8 - 0.0
29/09:30pm 24.3 23.7 12.3 47 6.9 E 7 9 4 5 1016.8 - 0.0
29/09:00pm 25.0 24.3 11.9 44 7.5 ENE 7 11 4 6 1016.6 - 0.0
29/08:30pm 25.8 25.5 13.3 46 7.3 ENE 7 11 4 6 1016.3 - 0.0
29/08:00pm 26.8 25.4 10.9 37 9.0 NE 9 17 5 9 1016.0 - 0.0
29/07:30pm 27.3 25.8 10.5 35 9.5 ENE 9 17 5 9 1015.5 1015.2 0.0
29/07:00pm 28.1 25.7 9.9 32 10.2 ENE 13 20 7 11 1015.2 - 0.0
29/06:30pm 29.2 26.6 9.3 29 11.1 ENE 13 22 7 12 1015.0 - 0.0
29/06:00pm 29.9 26.4 8.9 27 11.7 ENE 17 24 9 13 1014.8 - 0.0
29/05:30pm 30.2 26.1 8.0 25 12.2 ENE 19 24 10 13 1014.8 - 0.0
29/05:00pm 30.2 25.8 7.4 24 12.4 NE 20 28 11 15 1014.8 - 0.0
29/04:30pm 31.2 27.8 7.6 23 12.9 NE 15 26 8 14 1014.8 1014.5 0.0
29/04:00pm 31.5 27.8 6.5 21 13.5 ENE 15 22 8 12 1015.0 - 0.0
29/03:30pm 31.0 26.9 6.1 21 13.3 E 17 30 9 16 1015.1 - 0.0
29/03:00pm 30.9 26.2 5.3 20 13.5 E 19 28 10 15 1015.5 - 0.0
29/02:30pm 30.8 26.1 6.0 21 13.2 E 20 28 11 15 1015.9 - 0.0
29/02:00pm 30.6 25.8 5.8 21 13.1 ENE 20 32 11 17 1016.4 - 0.0
29/01:30pm 30.4 24.8 5.6 21 13.1 E 24 32 13 17 1016.8 1016.5 0.0
29/01:00pm 30.1 25.5 5.4 21 13.0 E 19 30 10 16 1017.3 - 0.0
29/12:30pm 30.0 25.1 5.3 21 12.9 ESE 20 32 11 17 1017.8 - 0.0
29/12:00pm 29.4 24.6 5.5 22 12.5 E 20 32 11 17 1018.3 - 0.0
29/11:30am 29.3 25.0 5.4 22 12.5 ESE 17 28 9 15 1018.7 - 0.0
29/11:00am 28.0 23.3 5.0 23 11.8 ESE 19 30 10 16 1018.9 - 0.0
29/10:30am 26.5 21.1 4.3 24 11.2 ESE 22 39 12 21 1019.1 1018.8 0.0
29/10:00am 26.1 20.2 4.0 24 11.0 ESE 24 39 13 21 1019.3 - 0.0
29/09:30am 25.4 20.4 4.5 26 10.5 ESE 20 33 11 18 1019.1 - 0.0
29/09:00am 24.6 19.6 3.8 26 10.3 ESE 19 32 10 17 1018.8 - 0.0
29/08:30am 23.9 19.8 4.3 28 9.7 ESE 15 26 8 14 1018.5 - 0.0
29/08:00am 23.1 19.3 4.1 29 9.3 ESE 13 24 7 13 1018.2 - 0.0
29/07:30am 22.8 18.6 3.9 29 9.2 ESE 15 24 8 13 1017.8 1017.5 0.0
29/07:00am 22.9 18.8 4.4 30 9.1 SE 15 20 8 11 1017.4 - 0.0
29/06:37am 22.8 19.2 4.8 31 8.9 ESE 13 24 7 13 1017.2 - 0.0
29/06:30am 22.7 19.4 4.7 31 8.9 ESE 11 20 6 11 1017.2 - 0.0
29/06:25am 22.5 19.2 4.5 31 8.9 ESE 11 17 6 9 1017.1 - 0.0
29/06:00am 22.9 19.7 4.9 31 9.0 ESE 11 20 6 11 1016.9 - 0.0
29/05:30am 23.2 19.6 5.1 31 9.1 SE 13 19 7 10 1016.8 - 0.0
29/05:00am 23.1 20.0 5.5 32 8.9 SE 11 17 6 9 1016.8 - 0.0
29/04:30am 23.1 20.1 6.0 33 8.7 ESE 11 15 6 8 1016.7 1016.4 0.0
29/04:00am 22.9 20.3 6.2 34 8.5 SE 9 13 5 7 1016.8 - 0.0
29/03:30am 23.0 20.4 6.3 34 8.5 SE 9 11 5 6 1017.0 - 0.0
29/03:00am 23.5 21.0 6.7 34 8.7 SE 9 13 5 7 1017.3 - 0.0
29/02:30am 23.2 20.9 7.3 36 8.3 SE 9 13 5 7 1017.5 - 0.0
29/02:00am 23.4 21.1 7.5 36 8.3 SE 9 13 5 7 1017.7 - 0.0
29/01:30am 22.8 20.9 8.9 41 7.4 SE 9 11 5 6 1017.9 1017.6 0.0
29/01:00am 21.8 20.8 10.9 50 6.0 SE 7 9 4 5 1018.0 - 0.0
29/12:30am 23.1 22.2 11.5 48 6.5 E 7 9 4 5 1018.2 - 0.0
29/12:07am 23.5 22.7 12.8 51 6.2 E 9 11 5 6 1018.2 - 0.0
29/12:00am 23.2 22.6 13.4 54 5.7 E 9 11 5 6 1018.2 - 0.0
 
Date/Time
CST
Temp
°C
App
Temp
°C
Dew
Point
Rel
Hum
%
Delta-T
°C
Wind Press
QNH
hPa
Press
MSL
hPa
Rain
since 9 am
mm
Dir
 
Spd
km/h
Gust
km/h
Spd
kts
Gust
kts
28/11:56pm 23.2 22.7 13.7 55 5.5 E 9 11 5 6 1018.2 - 0.0
28/11:30pm 22.9 23.3 15.2 62 4.6 E 7 11 4 6 1018.3 - 0.0
28/11:28pm 22.9 23.4 15.5 63 4.4 E 7 11 4 6 1018.3 - 0.0
28/11:08pm 23.3 23.8 15.6 62 4.6 ENE 7 11 4 6 1018.4 - 0.0
28/11:00pm 23.6 23.7 15.6 61 4.8 E 9 11 5 6 1018.2 - 0.0
28/10:30pm 23.8 23.9 15.6 60 4.9 ENE 9 11 5 6 1018.2 1017.9 0.0
28/10:00pm 23.7 24.4 16.0 62 4.7 E 7 9 4 5 1018.1 - 0.0
28/09:30pm 24.3 25.0 16.0 60 5.1 ESE 7 11 4 6 1017.9 - 0.0
28/09:00pm 24.8 24.3 12.7 47 7.0 E 7 11 4 6 1017.6 - 0.0
28/08:30pm 25.8 25.2 12.3 43 7.8 ENE 7 11 4 6 1017.2 - 0.0
28/08:00pm 26.5 25.2 11.4 39 8.6 ENE 9 13 5 7 1016.8 - 0.0
28/07:30pm 27.1 26.0 10.7 35 9.3 ENE 7 13 4 7 1016.5 1016.2 0.0
28/07:00pm 27.5 27.6 13.8 43 8.2 NNE 6 9 3 5 1016.1 - 0.0
28/06:30pm 29.6 26.8 8.6 27 11.6 NE 13 20 7 11 1015.7 - 0.0
28/06:00pm 30.5 27.3 8.3 25 12.3 NE 15 22 8 12 1015.3 - 0.0
28/05:30pm 30.9 27.7 8.6 25 12.4 NE 15 22 8 12 1015.2 - 0.0
28/05:00pm 31.6 28.6 7.9 23 13.1 ENE 13 20 7 11 1014.9 - 0.0
28/04:30pm 31.5 27.8 7.9 23 13.0 ENE 17 26 9 14 1014.8 1014.5 0.0
28/04:00pm 31.5 27.8 7.9 23 13.0 ENE 17 32 9 17 1015.0 - 0.0
28/03:30pm 31.6 27.9 7.9 23 13.1 E 17 26 9 14 1015.3 - 0.0
28/03:00pm 31.3 27.2 7.7 23 13.0 ENE 19 30 10 16 1015.7 - 0.0
28/02:30pm 30.5 26.2 7.0 23 12.7 E 19 33 10 18 1016.2 - 0.0
28/02:00pm 30.3 26.1 7.5 24 12.4 ESE 19 30 10 16 1016.7 - 0.0
28/01:30pm 30.3 25.9 7.5 24 12.4 E 20 35 11 19 1017.4 1017.1 0.0
28/01:00pm 29.6 24.8 7.5 25 12.0 E 22 37 12 20 1017.9 - 0.0
28/12:30pm 29.8 25.6 8.2 26 11.9 E 20 35 11 19 1018.3 - 0.0
28/12:00pm 28.9 24.3 8.0 27 11.4 E 22 35 12 19 1018.7 - 0.0
28/11:30am 28.3 22.8 7.5 27 11.2 E 26 41 14 22 1018.9 - 0.0
28/11:00am 28.3 23.5 7.5 27 11.2 E 22 35 12 19 1019.2 - 0.0
28/10:30am 27.6 22.1 7.5 28 10.8 E 26 39 14 21 1019.3 1019.0 0.0
28/10:00am 27.0 22.5 6.9 28 10.6 ESE 20 33 11 18 1019.2 - 0.0
28/09:30am 26.5 22.3 7.5 30 10.1 ESE 19 33 10 18 1019.0 - 0.0
28/09:00am 25.8 21.7 7.9 32 9.6 ESE 19 28 10 15 1018.8 - 0.0
28/08:30am 25.2 21.8 7.8 33 9.3 E 15 24 8 13 1018.6 - 0.0
28/08:00am 24.6 22.0 7.7 34 8.9 ESE 11 17 6 9 1018.1 - 0.0
28/07:30am 24.5 21.5 7.6 34 8.9 ESE 13 24 7 13 1017.6 1017.3 0.0
28/07:00am 25.0 21.3 8.1 34 9.0 ESE 17 30 9 16 1017.1 - 0.0
28/06:30am 25.2 22.3 8.2 34 9.1 ESE 13 19 7 10 1016.8 - 0.0
28/06:00am 25.5 22.6 8.1 33 9.3 SE 13 24 7 13 1016.5 - 0.0
28/05:30am 25.9 22.7 8.4 33 9.4 ESE 15 28 8 15 1016.4 - 0.0
28/05:00am 26.3 23.2 8.8 33 9.5 SE 15 26 8 14 1016.2 - 0.0
28/04:30am 26.4 23.7 8.8 33 9.6 SE 13 26 7 14 1016.0 1015.7 0.0
28/04:00am 26.3 23.3 9.2 34 9.4 ESE 15 28 8 15 1016.2 - 0.0
28/03:30am 26.6 24.2 9.9 35 9.3 ESE 13 24 7 13 1016.3 - 0.0
28/03:00am 25.1 23.7 12.3 45 7.4 ESE 11 17 6 9 1016.5 - 0.0
28/02:30am 22.0 22.6 15.4 66 3.9 SE 6 7 3 4 1016.5 - 0.0
28/02:00am 23.4 24.1 16.0 63 4.5 S 7 9 4 5 1016.6 - 0.0
28/01:30am 24.5 24.9 16.2 60 5.1 SSW 9 13 5 7 1016.7 1016.4 0.0

Other Formats:

Comma delimited format used in spreadsheet applications
http://www.bom.gov.au/fwo/IDD60801/IDD60801.95101.axf

JavaScript Object Notation format (JSON) in row-major order
http://www.bom.gov.au/fwo/IDD60801/IDD60801.95101.json